Time;durP1;ratioP1;P1;durP2;ratioP2;P2;SDS_P1;SDS_P2;PMS_P1;PMS_P2;Temp;Humidity;BMP_temperature;BMP_pressure;BME280_temperature;BME280_humidity;BME280_pressure;Samples;Min_cycle;Max_cycle;Signal;HPM_P1;HPM_P2
2023/12/23 00:01:31;;;;;;;4.05;3.75;;;;;;;3.34;100.00;62340.25;5096168;28;20221;-79
2023/12/23 00:04:00;;;;;;;5.28;3.58;;;;;;;3.34;100.00;62343.28;5088505;28;20221;-80
2023/12/23 00:06:27;;;;;;;4.40;3.85;;;;;;;3.28;100.00;62336.59;5089422;28;20252;-80
2023/12/23 00:08:53;;;;;;;4.05;3.42;;;;;;;3.33;100.00;62342.25;5089241;28;20228;-78
2023/12/23 00:11:20;;;;;;;3.92;3.33;;;;;;;3.39;100.00;62345.38;5108587;28;20200;-79
2023/12/23 00:13:47;;;;;;;3.70;3.40;;;;;;;3.36;100.00;62345.34;5103261;28;20210;-78
2023/12/23 00:16:14;;;;;;;3.75;3.28;;;;;;;3.45;100.00;62354.56;5091625;28;20204;-79
2023/12/23 00:18:41;;;;;;;3.47;3.17;;;;;;;3.30;100.00;62336.13;5091546;28;20533;-79
2023/12/23 00:21:10;;;;;;;5.45;4.03;;;;;;;3.01;100.00;62306.84;5098250;28;20196;-79
2023/12/23 00:23:36;;;;;;;5.03;4.07;;;;;;;3.07;100.00;62315.00;5092075;28;20189;-79
2023/12/23 00:26:03;;;;;;;4.38;3.97;;;;;;;3.09;100.00;62320.09;5090084;28;20218;-79
2023/12/23 00:28:30;;;;;;;4.85;3.20;;;;;;;3.09;100.00;62317.56;5090922;28;20223;-78
2023/12/23 00:30:57;;;;;;;3.72;3.42;;;;;;;2.81;100.00;62288.81;5105265;28;20216;-78
2023/12/23 00:33:24;;;;;;;4.20;3.70;;;;;;;2.75;100.00;62274.56;5095462;28;20203;-78
2023/12/23 00:35:51;;;;;;;3.22;2.92;;;;;;;2.64;100.00;62268.81;5108296;28;20228;-79
2023/12/23 00:38:19;;;;;;;3.72;3.08;;;;;;;2.76;100.00;62281.13;5095177;28;20218;-77
2023/12/23 00:40:46;;;;;;;3.58;3.28;;;;;;;2.82;100.00;62291.81;5102989;28;20224;-79
2023/12/23 00:43:13;;;;;;;7.88;3.63;;;;;;;2.76;100.00;62285.66;5103545;28;20221;-77
2023/12/23 00:45:39;;;;;;;2.90;2.70;;;;;;;2.76;100.00;62280.63;5094873;28;20509;-78
2023/12/23 00:48:07;;;;;;;3.33;3.03;;;;;;;2.86;100.00;62291.44;5091402;28;20211;-77
2023/12/23 00:50:34;;;;;;;4.43;3.35;;;;;;;2.56;100.00;62262.59;5096118;28;20321;-77
2023/12/23 00:53:02;;;;;;;5.47;3.50;;;;;;;2.62;100.00;62266.78;5092431;28;20203;-77
2023/12/23 00:55:30;;;;;;;3.70;3.38;;;;;;;2.55;100.00;62261.56;5096419;28;20223;-77
2023/12/23 00:57:57;;;;;;;3.17;2.92;;;;;;;2.64;100.00;62270.81;5086482;28;20193;-76
2023/12/23 01:00:24;;;;;;;4.50;3.47;;;;;;;2.54;100.00;62260.56;5085519;28;20244;-77
2023/12/23 01:02:51;;;;;;;4.05;3.47;;;;;;;2.55;100.00;62259.59;5099045;28;20207;-77
2023/12/23 01:05:18;;;;;;;3.80;3.50;;;;;;;2.61;100.00;62268.25;5092170;28;20242;-78
2023/12/23 01:07:45;;;;;;;4.15;3.42;;;;;;;2.67;100.00;62273.91;5103023;28;20196;-79
2023/12/23 01:10:12;;;;;;;4.05;3.65;;;;;;;2.76;100.00;62280.63;5097096;28;20295;-78
2023/12/23 01:12:40;;;;;;;3.80;3.47;;;;;;;2.80;100.00;62290.28;5106458;28;20418;-78
2023/12/23 01:15:08;;;;;;;4.50;3.47;;;;;;;2.80;100.00;62287.78;5099801;28;20238;-77
2023/12/23 01:17:35;;;;;;;6.03;3.42;;;;;;;2.90;100.00;62292.50;5104656;28;20237;-77
2023/12/23 01:20:02;;;;;;;3.30;2.83;;;;;;;2.92;100.00;62295.06;5098310;28;20239;-77
2023/12/23 01:22:30;;;;;;;2.78;2.58;;;;;;;2.95;100.00;62295.63;5099108;28;20201;-78
2023/12/23 01:24:57;;;;;;;3.63;3.33;;;;;;;2.92;100.00;62300.09;5090153;28;20220;-78
2023/12/23 01:27:24;;;;;;;3.25;3.00;;;;;;;2.95;100.00;62303.19;5086246;28;20193;-77
2023/12/23 01:29:52;;;;;;;2.80;2.60;;;;;;;2.91;100.00;62296.03;5086067;28;20272;-77
2023/12/23 01:32:19;;;;;;;3.55;3.25;;;;;;;2.92;100.00;62302.63;5086352;28;20204;-77
2023/12/23 01:34:46;;;;;;;5.65;3.60;;;;;;;2.95;100.00;62300.16;5087186;28;20216;-78
2023/12/23 01:37:13;;;;;;;3.80;3.50;;;;;;;2.89;100.00;62294.00;5098737;28;20403;-76
2023/12/23 01:39:39;;;;;;;3.60;3.30;;;;;;;2.89;100.00;62296.50;5094294;28;20289;-78
2023/12/23 01:42:06;;;;;;;4.35;3.95;;;;;;;2.86;100.00;62291.44;5093519;28;20191;-78
2023/12/23 01:44:33;;;;;;;4.28;3.22;;;;;;;2.91;100.00;62296.56;5105814;28;20287;-78
2023/12/23 01:47:02;;;;;;;3.83;3.30;;;;;;;2.86;100.00;62293.94;5101665;28;20418;-78
2023/12/23 01:49:29;;;;;;;3.72;3.42;;;;;;;2.81;100.00;62286.28;5088233;28;20243;-77
2023/12/23 01:51:56;;;;;;;3.17;2.97;;;;;;;2.84;100.00;62288.84;5094233;28;20215;-76
2023/12/23 01:54:23;;;;;;;2.95;2.75;;;;;;;2.91;100.00;62299.09;5085204;28;20555;-76
2023/12/23 01:56:50;;;;;;;3.58;3.22;;;;;;;2.72;100.00;62276.53;5086781;28;20208;-77
2023/12/23 01:59:17;;;;;;;3.20;3.00;;;;;;;2.79;100.00;62286.22;5092193;28;20284;-78
2023/12/23 02:01:44;;;;;;;3.92;3.28;;;;;;;2.76;100.00;62286.16;5102300;28;20230;-78
2023/12/23 02:04:12;;;;;;;3.50;1.90;;;;;;;3.03;100.00;62311.41;5107058;28;20257;-76
2023/12/23 02:06:39;;;;;;;2.63;2.38;;;;;;;3.13;100.00;62321.69;5107559;28;20233;-78
2023/12/23 02:09:06;;;;;;;2.15;1.65;;;;;;;3.24;100.00;62332.47;5099812;28;20243;-77
2023/12/23 02:11:37;;;;;;;1.38;1.27;;;;;;;3.46;100.00;62350.59;5100811;28;20214;-78
2023/12/23 02:14:07;;;;;;;1.50;1.40;;;;;;;3.50;100.00;62356.69;5086116;28;20216;-78
2023/12/23 02:16:34;;;;;;;2.28;2.13;;;;;;;3.61;100.00;62368.00;5086238;28;20206;-78
2023/12/23 02:19:00;;;;;;;3.15;2.35;;;;;;;3.60;100.00;62366.97;5099412;28;20224;-77
2023/12/23 02:21:29;;;;;;;3.72;2.13;;;;;;;3.48;100.00;62354.63;5096493;28;20461;-77
2023/12/23 02:23:56;;;;;;;3.35;2.88;;;;;;;3.34;100.00;62342.75;5094220;28;20258;-78
2023/12/23 02:26:23;;;;;;;2.92;2.67;;;;;;;3.32;100.00;62338.19;5107187;28;20196;-77
2023/12/23 02:28:52;;;;;;;4.03;2.80;;;;;;;3.23;100.00;62329.44;5100521;28;20196;-78
2023/12/23 02:31:19;;;;;;;5.30;3.30;;;;;;;3.15;100.00;62323.22;5090251;28;20191;-76
2023/12/23 02:33:47;;;;;;;3.75;2.90;;;;;;;2.90;100.00;62297.53;5095141;28;20398;-78
2023/12/23 02:36:14;;;;;;;3.65;2.55;;;;;;;2.72;100.00;62277.03;5090983;28;20391;-78
2023/12/23 02:38:42;;;;;;;3.10;2.85;;;;;;;2.66;100.00;62270.88;5085326;28;20265;-77
2023/12/23 02:41:09;;;;;;;3.20;2.78;;;;;;;2.56;100.00;62260.59;5085653;28;20529;-77
2023/12/23 02:43:36;;;;;;;3.70;2.92;;;;;;;2.35;100.00;62239.03;5087575;28;20204;-76
2023/12/23 02:46:03;;;;;;;3.20;3.00;;;;;;;2.11;100.00;62222.44;5087646;28;20216;-77
2023/12/23 02:48:30;;;;;;;2.58;2.40;;;;;;;2.11;100.00;62219.91;5086066;28;20189;-78
2023/12/23 02:50:56;;;;;;;3.25;2.75;;;;;;;2.12;100.00;62215.41;5089128;28;20457;-79
2023/12/23 02:53:23;;;;;;;3.38;3.08;;;;;;;2.07;100.00;62212.78;5094902;28;20229;-77
2023/12/23 02:55:51;;;;;;;3.15;2.60;;;;;;;2.02;100.00;62205.66;5099160;28;20528;-78
2023/12/23 02:58:18;;;;;;;2.80;2.60;;;;;;;2.10;100.00;62218.38;5104980;28;20225;-78
2023/12/23 03:00:45;;;;;;;3.08;2.85;;;;;;;2.17;100.00;62220.56;5103279;28;20231;-78
2023/12/23 03:03:12;;;;;;;3.15;2.85;;;;;;;2.16;100.00;62217.53;5095438;28;20203;-78
2023/12/23 03:05:39;;;;;;;3.38;2.60;;;;;;;2.14;100.00;62219.97;5085497;28;20433;-78
2023/12/23 03:08:07;;;;;;;4.32;3.33;;;;;;;2.09;100.00;62215.34;5088940;28;20224;-78
2023/12/23 03:10:34;;;;;;;2.70;2.50;;;;;;;2.06;100.00;62209.25;5102879;28;20227;-77
2023/12/23 03:13:02;;;;;;;3.65;2.67;;;;;;;2.08;100.00;62211.81;5105586;28;20210;-77
2023/12/23 03:15:29;;;;;;;3.95;2.90;;;;;;;2.10;100.00;62213.34;5097872;28;20216;-77
2023/12/23 03:17:56;;;;;;;2.78;2.42;;;;;;;2.11;100.00;62214.38;5106707;28;20257;-77
2023/12/23 03:20:26;;;;;;;4.40;3.97;;;;;;;2.08;100.00;62211.81;5107350;28;20240;-76
2023/12/23 03:22:53;;;;;;;3.78;2.95;;;;;;;2.11;100.00;62214.91;5108968;28;20200;-77
2023/12/23 03:25:20;;;;;;;2.97;2.65;;;;;;;2.12;100.00;62218.44;5092613;28;20224;-77
2023/12/23 03:27:47;;;;;;;2.90;2.70;;;;;;;2.17;100.00;62221.06;5108379;28;20366;-76
2023/12/23 03:30:16;;;;;;;2.85;2.65;;;;;;;2.18;100.00;62224.06;5108358;28;20546;-78
2023/12/23 03:32:43;;;;;;;2.70;2.50;;;;;;;2.23;100.00;62229.22;5089541;28;20228;-78
2023/12/23 03:35:10;;;;;;;2.45;2.35;;;;;;;2.32;100.00;62238.47;5088573;28;20224;-76
2023/12/23 03:37:37;;;;;;;2.40;2.30;;;;;;;2.12;100.00;62218.44;5088259;28;20197;-79
2023/12/23 03:40:07;;;;;;;2.72;2.53;;;;;;;2.14;100.00;62214.97;5088048;28;20236;-76
2023/12/23 03:42:35;;;;;;;2.50;2.30;;;;;;;2.06;100.00;62209.25;5099605;28;20197;-79
2023/12/23 03:45:02;;;;;;;3.20;1.95;;;;;;;1.97;100.00;62205.53;5103600;28;20212;-79
2023/12/23 03:47:31;;;;;;;1.88;1.75;;;;;;;1.92;100.00;62194.88;5110667;28;20263;-77
2023/12/23 03:49:57;;;;;;;1.80;1.75;;;;;;;1.99;100.00;62205.09;5109281;28;20219;-78
2023/12/23 03:52:24;;;;;;;2.22;2.13;;;;;;;2.02;100.00;62207.66;5089109;28;20205;-78
2023/12/23 03:54:51;;;;;;;4.00;1.98;;;;;;;2.02;100.00;62205.16;5100838;28;20229;-79
2023/12/23 03:57:18;;;;;;;4.20;2.53;;;;;;;1.99;100.00;62207.59;5110392;28;20196;-76
2023/12/23 03:59:45;;;;;;;2.88;2.30;;;;;;;2.00;100.00;62206.09;5109169;28;20513;-78
2023/12/23 04:02:11;;;;;;;1.90;1.80;;;;;;;1.98;100.00;62199.06;5110166;28;20260;-78
2023/12/23 04:04:40;;;;;;;1.85;1.75;;;;;;;2.04;100.00;62207.19;5090201;28;20553;-78
2023/12/23 04:07:07;;;;;;;2.05;1.85;;;;;;;2.01;100.00;62206.63;5103078;28;20215;-78
2023/12/23 04:09:34;;;;;;;2.05;1.60;;;;;;;2.04;100.00;62205.19;5107698;28;20226;-78
2023/12/23 04:12:01;;;;;;;2.72;2.53;;;;;;;2.11;100.00;62214.38;5089152;28;20201;-77
2023/12/23 04:14:28;;;;;;;3.30;2.67;;;;;;;2.12;100.00;62215.91;5088511;28;20224;-78
2023/12/23 04:16:55;;;;;;;2.97;2.00;;;;;;;2.10;100.00;62211.38;5089092;28;20201;-79
2023/12/23 04:19:22;;;;;;;1.92;1.83;;;;;;;2.11;100.00;62219.91;5098969;28;20406;-78
2023/12/23 04:21:50;;;;;;;1.88;1.75;;;;;;;2.11;100.00;62217.41;5088636;28;20238;-78
2023/12/23 04:24:19;;;;;;;1.67;1.58;;;;;;;2.11;100.00;62214.38;5088710;28;20216;-78
2023/12/23 04:26:45;;;;;;;1.98;1.88;;;;;;;2.18;100.00;62221.56;5103852;28;20194;-78
2023/12/23 04:29:12;;;;;;;1.73;1.63;;;;;;;2.20;100.00;62228.66;5109151;28;20265;-78
2023/12/23 04:31:40;;;;;;;4.05;2.17;;;;;;;2.22;100.00;62226.19;5109219;28;20259;-79
2023/12/23 04:34:07;;;;;;;4.25;1.80;;;;;;;2.28;100.00;62234.34;5094609;28;20283;-77
2023/12/23 04:36:34;;;;;;;1.95;1.85;;;;;;;2.20;100.00;62226.13;5109818;28;20207;-78
2023/12/23 04:39:04;;;;;;;1.60;1.60;;;;;;;2.25;100.00;62231.28;5101515;28;20243;-77
2023/12/23 04:41:31;;;;;;;2.45;2.17;;;;;;;2.28;100.00;62234.34;5089308;28;20238;-78
2023/12/23 04:43:58;;;;;;;2.10;2.00;;;;;;;2.24;100.00;62227.75;5098599;28;20525;-78
2023/12/23 04:46:25;;;;;;;1.92;1.83;;;;;;;2.17;100.00;62223.56;5087602;28;20197;-77
2023/12/23 04:48:52;;;;;;;3.03;2.83;;;;;;;2.19;100.00;62225.13;5093221;28;20200;-77
2023/12/23 04:51:19;;;;;;;2.45;2.25;;;;;;;2.29;100.00;62232.88;5102418;28;20207;-79
2023/12/23 04:53:46;;;;;;;2.10;1.73;;;;;;;2.34;100.00;62241.03;5105459;28;20196;-77
2023/12/23 04:56:14;;;;;;;2.42;2.00;;;;;;;2.31;100.00;62234.94;5103361;28;20240;-78
2023/12/23 04:58:41;;;;;;;4.32;1.98;;;;;;;2.30;100.00;62236.91;5091030;28;20200;-76
2023/12/23 05:01:08;;;;;;;2.17;2.08;;;;;;;2.24;100.00;62227.75;5106500;28;20366;-78
2023/12/23 05:03:35;;;;;;;1.60;1.50;;;;;;;2.24;100.00;62230.75;5096670;28;20260;-79
2023/12/23 05:06:03;;;;;;;1.77;1.67;;;;;;;2.27;100.00;62228.81;5095482;28;20513;-77
2023/12/23 05:08:30;;;;;;;1.92;1.83;;;;;;;2.31;100.00;62239.94;5104034;28;20196;-79
2023/12/23 05:10:56;;;;;;;1.27;1.20;;;;;;;2.43;100.00;62249.75;5089736;28;20224;-75
2023/12/23 05:13:25;;;;;;;1.90;1.80;;;;;;;2.39;100.00;62243.13;5088048;28;20196;-77
2023/12/23 05:15:52;;;;;;;3.83;1.40;;;;;;;2.65;100.00;62269.84;5086617;28;20217;-79
2023/12/23 05:18:18;;;;;;;1.77;1.67;;;;;;;2.78;100.00;62283.19;5092592;28;20738;-77
2023/12/23 05:20:45;;;;;;;1.02;0.85;;;;;;;2.73;100.00;62278.06;5095564;28;20237;-78
2023/12/23 05:23:12;;;;;;;1.10;1.05;;;;;;;2.62;100.00;62266.78;5088543;28;20226;-78
2023/12/23 05:25:39;;;;;;;2.05;1.27;;;;;;;2.66;100.00;62270.88;5098234;28;20257;-77
2023/12/23 05:28:06;;;;;;;2.78;1.38;;;;;;;2.65;100.00;62269.84;5107375;28;20196;-78
2023/12/23 05:30:36;;;;;;;1.30;1.20;;;;;;;2.64;100.00;62268.31;5106477;28;20220;-77
2023/12/23 05:33:02;;;;;;;1.48;1.38;;;;;;;2.68;100.00;62272.94;5106499;28;20203;-77
2023/12/23 05:35:29;;;;;;;1.10;1.10;;;;;;;2.68;100.00;62272.41;5098378;28;20336;-77
2023/12/23 05:37:57;;;;;;;1.00;1.00;;;;;;;2.71;100.00;62278.53;5097460;28;20239;-78
2023/12/23 05:40:22;;;;;;;1.48;1.10;;;;;;;3.11;100.00;62314.59;5100637;28;20282;-79
2023/12/23 05:42:49;;;;;;;1.20;1.10;;;;;;;3.66;100.00;62375.16;5086750;28;20408;-78
2023/12/23 05:45:16;;;;;;;1.00;1.00;;;;;;;4.02;99.99;62410.16;5086898;28;20220;-78
2023/12/23 05:47:45;;;;;;;0.75;0.75;;;;;;;4.08;98.38;62418.88;5088554;28;20215;-78
2023/12/23 05:50:12;;;;;;;0.80;0.80;;;;;;;4.12;98.70;62420.47;5107051;28;20273;-76
2023/12/23 05:52:38;;;;;;;0.98;0.98;;;;;;;3.95;99.83;62408.00;5108216;28;20279;-79
2023/12/23 05:55:06;;;;;;;0.93;0.93;;;;;;;4.05;99.03;62417.78;5106472;28;20383;-77
2023/12/23 05:57:33;;;;;;;2.97;1.30;;;;;;;4.07;98.80;62412.28;5107513;28;20580;-77
2023/12/23 06:00:00;;;;;;;1.25;1.23;;;;;;;4.08;98.58;62418.34;5086401;28;20262;-77
2023/12/23 06:02:28;;;;;;;2.63;1.08;;;;;;;4.24;96.47;62432.81;5086822;28;20193;-79
2023/12/23 06:04:56;;;;;;;2.13;0.88;;;;;;;4.52;93.20;62461.13;5088968;28;20231;-78
2023/12/23 06:07:23;;;;;;;1.00;0.90;;;;;;;5.02;88.18;62515.09;5096414;28;20204;-78
2023/12/23 06:09:50;;;;;;;1.02;1.00;;;;;;;5.27;85.20;62538.31;5103408;28;20273;-79
2023/12/23 06:12:17;;;;;;;1.20;0.85;;;;;;;5.81;77.42;62593.97;5109093;28;20204;-78
2023/12/23 06:14:44;;;;;;;0.70;0.70;;;;;;;6.19;74.50;62634.63;5095840;28;20228;-79
2023/12/23 06:17:10;;;;;;;1.10;1.00;;;;;;;6.56;71.45;62675.31;5087905;28;20551;-79
2023/12/23 06:19:37;;;;;;;1.00;0.82;;;;;;;6.91;68.35;62706.88;5095187;28;20224;-80
2023/12/23 06:22:05;;;;;;;3.90;1.13;;;;;;;7.40;65.31;62761.47;5091524;28;20228;-79
2023/12/23 06:24:32;;;;;;;2.13;1.10;;;;;;;7.97;62.27;62815.22;5087701;28;20236;-79
2023/12/23 06:26:59;;;;;;;2.22;0.80;;;;;;;8.27;60.01;62848.25;5106204;28;20204;-78
2023/12/23 06:29:26;;;;;;;1.23;1.23;;;;;;;8.46;58.52;62868.38;5109565;28;20215;-79
2023/12/23 06:31:53;;;;;;;2.10;1.23;;;;;;;8.60;57.40;62882.84;5110365;28;20192;-77
2023/12/23 06:34:20;;;;;;;1.13;1.13;;;;;;;8.69;57.18;62891.63;5105464;28;20223;-78
2023/12/23 06:36:47;;;;;;;1.08;0.90;;;;;;;8.72;57.11;62892.19;5098337;28;20200;-79
2023/12/23 06:39:15;;;;;;;0.80;0.80;;;;;;;8.78;56.91;62898.41;5092256;28;20212;-77
2023/12/23 06:41:46;;;;;;;2.35;1.00;;;;;;;8.81;56.74;62901.50;5094818;28;20243;-81
2023/12/23 06:44:13;;;;;;;0.90;0.90;;;;;;;8.89;56.24;62907.22;5090892;28;20350;-79
2023/12/23 06:46:40;;;;;;;1.42;1.17;;;;;;;8.97;56.29;62921.06;5090616;28;20188;-81
2023/12/23 06:49:07;;;;;;;1.67;0.77;;;;;;;8.99;55.85;62925.19;5091544;28;20217;-79
2023/12/23 06:51:34;;;;;;;1.08;1.08;;;;;;;8.99;55.53;62923.16;5089672;28;20262;-79
2023/12/23 06:54:01;;;;;;;1.08;1.08;;;;;;;8.99;55.69;62925.69;5110936;28;20212;-79
2023/12/23 06:56:29;;;;;;;0.90;0.80;;;;;;;8.97;56.08;62923.63;5099146;28;20253;-79
2023/12/23 06:58:56;;;;;;;1.05;0.95;;;;;;;9.08;55.29;62927.38;5102939;28;20258;-79
2023/12/23 07:01:23;;;;;;;1.00;1.00;;;;;;;9.18;55.66;62939.75;5089315;28;20212;-78
2023/12/23 07:03:50;;;;;;;0.95;0.90;;;;;;;9.16;55.51;62943.25;5099550;28;20192;-80
2023/12/23 07:06:17;;;;;;;1.05;1.02;;;;;;;9.17;55.84;62939.22;5098064;28;20192;-78
2023/12/23 07:08:44;;;;;;;4.07;1.13;;;;;;;9.12;55.71;62933.53;5090805;28;20204;-79
2023/12/23 07:11:11;;;;;;;1.00;0.90;;;;;;;9.12;55.41;62941.66;5098537;28;20203;-80
2023/12/23 07:13:39;;;;;;;1.23;1.02;;;;;;;9.15;55.61;62942.22;5097588;28;20196;-78
2023/12/23 07:16:07;;;;;;;2.00;1.00;;;;;;;9.19;55.57;62943.84;5101593;28;20196;-78
2023/12/23 07:18:34;;;;;;;1.77;0.88;;;;;;;9.16;55.52;62940.22;5102029;28;20196;-77
2023/12/23 07:21:01;;;;;;;1.17;1.08;;;;;;;9.19;55.24;62943.84;5097418;28;20227;-79
2023/12/23 07:23:28;;;;;;;0.77;0.77;;;;;;;9.23;55.67;62944.91;5089292;28;20258;-78
2023/12/23 07:25:55;;;;;;;3.17;1.15;;;;;;;9.27;55.24;62952.09;5092678;28;20246;-78
2023/12/23 07:28:21;;;;;;;0.80;0.80;;;;;;;9.30;55.06;62952.16;5099505;28;20211;-79
2023/12/23 07:30:50;;;;;;;1.40;1.40;;;;;;;9.31;55.03;62955.72;5091345;28;20260;-78
2023/12/23 07:33:16;;;;;;;1.58;1.00;;;;;;;9.37;55.08;62964.44;5089749;28;20219;-80
2023/12/23 07:35:43;;;;;;;0.65;0.65;;;;;;;9.34;55.38;62956.28;5101292;28;20235;-80
2023/12/23 07:38:11;;;;;;;3.50;0.95;;;;;;;9.41;55.20;62966.03;5099178;28;20207;-80
2023/12/23 07:40:38;;;;;;;0.90;0.90;;;;;;;9.44;55.15;62969.13;5099091;28;20216;-78
2023/12/23 07:43:05;;;;;;;0.95;0.95;;;;;;;9.44;55.37;62968.63;5094696;28;20197;-80
2023/12/23 07:45:32;;;;;;;1.08;1.00;;;;;;;9.47;55.31;62969.19;5096432;28;20270;-78
2023/12/23 07:48:01;;;;;;;1.30;1.20;;;;;;;9.51;55.51;62973.34;5104022;28;20203;-80
2023/12/23 07:50:28;;;;;;;0.98;0.98;;;;;;;9.52;55.55;62974.88;5103478;28;20226;-78
2023/12/23 07:52:55;;;;;;;1.10;0.90;;;;;;;9.53;55.53;62975.38;5096676;28;20258;-80
2023/12/23 07:55:22;;;;;;;0.80;0.80;;;;;;;9.40;55.86;62962.47;5104557;28;20319;-78
2023/12/23 07:57:49;;;;;;;0.90;0.90;;;;;;;9.46;56.05;62973.75;5094804;28;20214;-79
2023/12/23 08:00:16;;;;;;;0.98;0.98;;;;;;;9.49;55.14;62971.25;5099224;28;20219;-78
2023/12/23 08:02:43;;;;;;;1.30;1.17;;;;;;;9.65;54.97;62993.41;5107068;28;20232;-78
2023/12/23 08:05:11;;;;;;;1.15;1.15;;;;;;;9.71;55.17;62996.56;5109994;28;20223;-78
2023/12/23 08:07:41;;;;;;;1.63;1.25;;;;;;;9.67;54.83;62990.38;5108084;28;20192;-77
2023/12/23 08:10:09;;;;;;;1.35;1.27;;;;;;;9.62;55.50;62987.75;5088831;28;20228;-79
2023/12/23 08:12:36;;;;;;;1.73;1.35;;;;;;;9.51;56.05;62978.94;5102166;28;20203;-77
2023/12/23 08:15:03;;;;;;;1.02;1.02;;;;;;;9.58;56.02;62986.16;5111432;28;20532;-79
2023/12/23 08:17:30;;;;;;;3.40;1.30;;;;;;;9.57;56.09;62979.53;5099699;28;20231;-78
2023/12/23 08:19:57;;;;;;;2.75;1.67;;;;;;;9.61;56.06;62991.81;5108732;28;20216;-82
2023/12/23 08:22:25;;;;;;;2.15;1.50;;;;;;;9.69;56.48;62991.94;5102599;28;20228;-79
2023/12/23 08:24:52;;;;;;;1.67;1.33;;;;;;;9.77;55.96;63000.22;5089544;28;20262;-78
2023/12/23 08:27:19;;;;;;;1.98;1.30;;;;;;;9.81;55.77;63004.88;5094655;28;20200;-77
2023/12/23 08:29:51;;;;;;;1.10;1.10;;;;;;;10.00;55.10;63029.09;5110800;28;20247;-77
2023/12/23 08:32:18;;;;;;;3.97;1.23;;;;;;;10.04;55.55;63028.66;5114157;28;20192;-78
2023/12/23 08:34:46;;;;;;;0.90;0.80;;;;;;;10.23;54.39;63047.81;5110184;28;20238;-78
2023/12/23 08:37:13;;;;;;;1.25;1.20;;;;;;;10.22;55.79;63051.88;5095071;28;20197;-81
2023/12/23 08:39:41;;;;;;;1.73;0.98;;;;;;;10.33;55.13;63060.72;5102900;28;20232;-79
2023/12/23 08:42:08;;;;;;;1.13;1.13;;;;;;;10.37;56.03;63060.28;5111008;28;20224;-79
2023/12/23 08:44:35;;;;;;;1.50;1.05;;;;;;;10.36;56.20;63058.72;5106617;28;20216;-78
2023/12/23 08:47:02;;;;;;;1.23;1.10;;;;;;;10.32;56.33;63062.72;5104183;28;20196;-77
2023/12/23 08:49:29;;;;;;;1.48;1.30;;;;;;;10.23;57.24;63053.41;5095074;28;20216;-78
2023/12/23 08:51:56;;;;;;;1.33;1.23;;;;;;;9.97;58.57;63020.91;5097639;28;20337;-79
2023/12/23 08:54:23;;;;;;;1.27;1.17;;;;;;;9.92;59.87;63018.78;5089358;28;20247;-80
2023/12/23 08:56:51;;;;;;;1.52;1.40;;;;;;;9.95;60.36;63021.38;5089745;28;20283;-80
2023/12/23 08:59:18;;;;;;;1.38;1.27;;;;;;;9.95;60.27;63021.91;5096705;28;20220;-78
2023/12/23 09:01:45;;;;;;;1.20;1.10;;;;;;;9.81;61.25;63006.91;5110327;28;20238;-79
2023/12/23 09:04:13;;;;;;;1.88;1.73;;;;;;;9.66;63.55;62991.38;5104173;28;20219;-80
2023/12/23 09:06:41;;;;;;;6.72;1.35;;;;;;;9.73;62.25;63001.69;5113345;28;20297;-79
2023/12/23 09:09:08;;;;;;;2.75;1.52;;;;;;;9.57;63.28;62982.59;5111326;28;20242;-80
2023/12/23 09:11:41;;;;;;;2.00;1.25;;;;;;;9.34;65.44;62958.81;5105507;28;20197;-78
2023/12/23 09:14:09;;;;;;;3.67;2.30;;;;;;;8.45;75.62;62869.38;5095065;28;20220;-78
2023/12/23 09:16:36;;;;;;;6.20;2.33;;;;;;;7.96;83.15;62817.25;5101794;28;20192;-79
2023/12/23 09:19:04;;;;;;;2.72;1.80;;;;;;;7.61;89.65;62778.06;5101970;28;20239;-81
2023/12/23 09:21:31;;;;;;;1.38;1.27;;;;;;;7.51;90.48;62775.34;5089025;28;20224;-80
2023/12/23 09:23:58;;;;;;;2.33;2.10;;;;;;;7.35;95.02;62756.31;5097843;28;20612;-79
2023/12/23 09:26:25;;;;;;;2.60;2.40;;;;;;;7.16;98.98;62739.75;5109031;28;20200;-79
2023/12/23 09:28:52;;;;;;;3.45;3.15;;;;;;;6.95;100.00;62713.00;5097768;28;20231;-79
2023/12/23 09:31:20;;;;;;;3.15;2.35;;;;;;;6.70;100.00;62692.28;5088854;28;20196;-79
2023/12/23 09:33:47;;;;;;;2.25;2.05;;;;;;;6.51;100.00;62665.09;5088855;28;20404;-78
2023/12/23 09:36:14;;;;;;;3.03;2.28;;;;;;;6.44;100.00;62660.41;5087872;28;20226;-79
2023/12/23 09:38:40;;;;;;;3.92;2.45;;;;;;;6.23;100.00;62636.25;5088700;28;20196;-78
2023/12/23 09:41:08;;;;;;;2.00;1.90;;;;;;;5.89;100.00;62601.69;5089835;28;20277;-79
2023/12/23 09:43:34;;;;;;;3.47;2.40;;;;;;;5.91;100.00;62608.81;5091732;28;20490;-78
2023/12/23 09:46:01;;;;;;;2.78;1.40;;;;;;;5.93;100.00;62607.84;5088091;28;20205;-79
2023/12/23 09:48:30;;;;;;;2.97;2.25;;;;;;;5.82;100.00;62594.47;5089299;28;20223;-78
2023/12/23 09:50:56;;;;;;;2.08;1.98;;;;;;;5.76;100.00;62590.81;5090507;28;20270;-79
2023/12/23 09:53:24;;;;;;;1.23;1.23;;;;;;;5.53;100.00;62565.09;5098099;28;20266;-78
2023/12/23 09:55:51;;;;;;;1.70;1.60;;;;;;;5.17;100.00;62530.56;5087226;28;20296;-78
2023/12/23 09:58:19;;;;;;;1.55;1.20;;;;;;;4.78;100.00;62490.38;5087079;28;20201;-76
2023/12/23 10:00:46;;;;;;;1.50;1.40;;;;;;;4.59;100.00;62470.84;5088280;28;20266;-81
2023/12/23 10:03:13;;;;;;;1.70;1.60;;;;;;;4.58;100.00;62472.31;5090691;28;20220;-79
2023/12/23 10:05:43;;;;;;;1.60;1.38;;;;;;;4.29;100.00;62437.97;5089839;28;20579;-81
2023/12/23 10:08:10;;;;;;;1.10;1.10;;;;;;;4.20;100.00;62428.69;5101106;28;20246;-80
2023/12/23 10:10:37;;;;;;;1.30;1.30;;;;;;;4.08;100.00;62418.88;5101517;28;20220;-81
2023/12/23 10:13:04;;;;;;;1.92;1.83;;;;;;;4.02;100.00;62414.69;5101652;28;20377;-80
2023/12/23 10:15:32;;;;;;;1.65;1.55;;;;;;;4.07;100.00;62417.81;5097265;28;20351;-80
2023/12/23 10:18:03;;;;;;;1.80;1.70;;;;;;;4.12;100.00;62419.94;5104423;28;20204;-80
2023/12/23 10:20:30;;;;;;;2.13;2.00;;;;;;;4.07;100.00;62420.34;5091919;28;20409;-80
2023/12/23 10:22:58;;;;;;;1.92;1.67;;;;;;;4.03;100.00;62413.72;5105336;28;20224;-80
2023/12/23 10:25:26;;;;;;;1.70;1.60;;;;;;;3.88;100.00;62398.31;5109279;28;20216;-80
2023/12/23 10:27:54;;;;;;;1.55;1.45;;;;;;;3.83;100.00;62393.13;5101082;28;20235;-80
2023/12/23 10:30:21;;;;;;;1.63;1.52;;;;;;;3.85;100.00;62392.69;5088361;28;20240;-81
2023/12/23 10:32:48;;;;;;;1.60;1.50;;;;;;;3.95;100.00;62404.97;5098176;28;20200;-81
2023/12/23 10:35:16;;;;;;;1.80;1.70;;;;;;;3.95;100.00;62402.47;5102393;28;20216;-80
2023/12/23 10:37:43;;;;;;;2.25;1.80;;;;;;;3.99;100.00;62409.09;5109377;28;20199;-79
2023/12/23 10:40:15;;;;;;;1.63;1.52;;;;;;;4.12;100.00;62422.47;5090200;28;20220;-80
2023/12/23 10:42:43;;;;;;;2.13;1.20;;;;;;;4.00;100.00;62412.66;5098864;28;20219;-81
2023/12/23 10:45:11;;;;;;;1.30;1.20;;;;;;;4.01;100.00;62409.16;5109073;28;20224;-79
2023/12/23 10:47:38;;;;;;;1.13;1.13;;;;;;;4.03;100.00;62416.25;5105426;28;20200;-79
2023/12/23 10:50:08;;;;;;;0.93;0.93;;;;;;;3.99;100.00;62406.56;5109678;28;20206;-78
2023/12/23 10:52:35;;;;;;;1.00;1.00;;;;;;;4.01;100.00;62414.19;5104842;28;20222;-78
2023/12/23 10:55:02;;;;;;;1.10;1.10;;;;;;;3.95;100.00;62402.97;5094468;28;20230;-78
2023/12/23 10:57:30;;;;;;;1.10;1.10;;;;;;;3.84;100.00;62388.63;5086946;28;20386;-78
2023/12/23 10:59:57;;;;;;;1.48;1.38;;;;;;;3.86;100.00;62393.19;5085871;28;20228;-78
2023/12/23 11:02:28;;;;;;;1.10;0.70;;;;;;;3.76;100.00;62380.94;5086253;28;20239;-81
2023/12/23 11:04:55;;;;;;;1.20;1.17;;;;;;;3.83;100.00;62392.63;5086417;28;20559;-78
2023/12/23 11:07:23;;;;;;;1.17;1.08;;;;;;;3.88;100.00;62398.31;5089009;28;20204;-78
2023/12/23 11:09:50;;;;;;;1.63;1.52;;;;;;;4.12;100.00;62419.94;5098041;28;20240;-79
2023/12/23 11:12:18;;;;;;;1.83;1.73;;;;;;;4.29;100.00;62437.97;5090610;28;20432;-78
2023/12/23 11:14:46;;;;;;;1.88;1.70;;;;;;;4.30;100.00;62438.97;5099731;28;20216;-78
2023/12/23 11:17:24;;;;;;;1.65;1.55;;;;;;;4.43;100.00;62457.41;5089271;28;20449;-78
2023/12/23 11:19:51;;;;;;;2.20;2.10;;;;;;;4.56;100.00;62468.25;5093476;28;20228;-79
2023/12/23 11:22:23;;;;;;;1.63;1.55;;;;;;;4.76;100.00;62487.81;5102237;28;20239;-78
2023/12/23 11:24:50;;;;;;;1.88;1.60;;;;;;;4.83;100.00;62492.50;5089130;28;20235;-79
2023/12/23 11:27:31;;;;;;;1.63;1.60;;;;;;;4.88;100.00;62502.69;5088528;28;20197;-78
2023/12/23 11:30:01;;;;;;;2.28;2.08;;;;;;;4.73;100.00;62485.75;5091171;28;20590;-79
2023/12/23 11:32:33;;;;;;;1.50;1.40;;;;;;;4.86;100.00;62501.16;5091527;28;20231;-78
2023/12/23 11:35:00;;;;;;;1.88;1.73;;;;;;;4.95;100.00;62502.34;5084259;28;20235;-79
2023/12/23 11:37:52;;;;;;;1.65;1.55;;;;;;;4.89;100.00;62501.19;5094986;28;20216;-79